sensor_id;sensor_type;location;lat;lon;timestamp;P1;durP1;ratioP1;P2;durP2;ratioP2
49366;SDS011;35245;52.026;8.540;2023-12-22T00:01:17;21.45;;;4.80;;
49366;SDS011;35245;52.026;8.540;2023-12-22T00:03:44;24.80;;;4.90;;
49366;SDS011;35245;52.026;8.540;2023-12-22T00:06:11;25.30;;;4.55;;
49366;SDS011;35245;52.026;8.540;2023-12-22T00:08:38;24.40;;;4.78;;
49366;SDS011;35245;52.026;8.540;2023-12-22T00:11:05;20.95;;;4.53;;
49366;SDS011;35245;52.026;8.540;2023-12-22T00:13:33;23.42;;;4.10;;
49366;SDS011;35245;52.026;8.540;2023-12-22T00:16:00;26.70;;;5.32;;
49366;SDS011;35245;52.026;8.540;2023-12-22T00:18:27;25.38;;;5.15;;
49366;SDS011;35245;52.026;8.540;2023-12-22T00:20:53;27.55;;;4.75;;
49366;SDS011;35245;52.026;8.540;2023-12-22T00:23:20;27.77;;;4.22;;
49366;SDS011;35245;52.026;8.540;2023-12-22T00:25:47;24.92;;;4.80;;
49366;SDS011;35245;52.026;8.540;2023-12-22T00:28:14;22.85;;;4.72;;
49366;SDS011;35245;52.026;8.540;2023-12-22T00:30:42;23.45;;;4.28;;
49366;SDS011;35245;52.026;8.540;2023-12-22T00:33:09;24.17;;;4.75;;
49366;SDS011;35245;52.026;8.540;2023-12-22T00:35:36;29.60;;;4.43;;
49366;SDS011;35245;52.026;8.540;2023-12-22T00:38:03;26.55;;;5.00;;
49366;SDS011;35245;52.026;8.540;2023-12-22T00:40:29;28.10;;;5.53;;
49366;SDS011;35245;52.026;8.540;2023-12-22T00:42:56;23.35;;;4.53;;
49366;SDS011;35245;52.026;8.540;2023-12-22T00:45:23;29.70;;;5.30;;
49366;SDS011;35245;52.026;8.540;2023-12-22T00:47:51;24.70;;;5.32;;
49366;SDS011;35245;52.026;8.540;2023-12-22T00:50:18;34.80;;;5.22;;
49366;SDS011;35245;52.026;8.540;2023-12-22T00:52:45;27.30;;;4.78;;
49366;SDS011;35245;52.026;8.540;2023-12-22T00:55:12;26.40;;;5.63;;
49366;SDS011;35245;52.026;8.540;2023-12-22T00:57:39;23.63;;;5.13;;
49366;SDS011;35245;52.026;8.540;2023-12-22T01:00:06;29.65;;;5.50;;
49366;SDS011;35245;52.026;8.540;2023-12-22T01:02:37;21.23;;;5.00;;
49366;SDS011;35245;52.026;8.540;2023-12-22T01:05:06;20.33;;;4.55;;
49366;SDS011;35245;52.026;8.540;2023-12-22T01:07:33;29.00;;;5.30;;
49366;SDS011;35245;52.026;8.540;2023-12-22T01:10:00;32.90;;;5.18;;
49366;SDS011;35245;52.026;8.540;2023-12-22T01:12:29;28.00;;;4.97;;
49366;SDS011;35245;52.026;8.540;2023-12-22T01:14:56;31.10;;;4.97;;
49366;SDS011;35245;52.026;8.540;2023-12-22T01:17:23;34.05;;;5.13;;
49366;SDS011;35245;52.026;8.540;2023-12-22T01:19:50;25.40;;;5.57;;
49366;SDS011;35245;52.026;8.540;2023-12-22T01:22:18;21.65;;;5.35;;
49366;SDS011;35245;52.026;8.540;2023-12-22T01:24:45;28.92;;;5.75;;
49366;SDS011;35245;52.026;8.540;2023-12-22T01:27:12;19.45;;;4.38;;
49366;SDS011;35245;52.026;8.540;2023-12-22T01:29:38;27.15;;;5.72;;
49366;SDS011;35245;52.026;8.540;2023-12-22T01:32:05;26.55;;;4.70;;
49366;SDS011;35245;52.026;8.540;2023-12-22T01:34:32;19.60;;;4.90;;
49366;SDS011;35245;52.026;8.540;2023-12-22T01:36:59;15.88;;;3.10;;
49366;SDS011;35245;52.026;8.540;2023-12-22T01:39:28;15.80;;;2.70;;
49366;SDS011;35245;52.026;8.540;2023-12-22T01:41:54;14.98;;;2.80;;
49366;SDS011;35245;52.026;8.540;2023-12-22T01:44:21;12.02;;;2.60;;
49366;SDS011;35245;52.026;8.540;2023-12-22T01:46:48;17.17;;;3.40;;
49366;SDS011;35245;52.026;8.540;2023-12-22T01:49:16;22.70;;;3.78;;
49366;SDS011;35245;52.026;8.540;2023-12-22T01:51:43;12.88;;;3.28;;
49366;SDS011;35245;52.026;8.540;2023-12-22T01:54:10;21.88;;;4.05;;
49366;SDS011;35245;52.026;8.540;2023-12-22T01:56:38;25.02;;;4.30;;
49366;SDS011;35245;52.026;8.540;2023-12-22T01:59:05;23.05;;;4.90;;
49366;SDS011;35245;52.026;8.540;2023-12-22T02:01:33;23.05;;;4.57;;
49366;SDS011;35245;52.026;8.540;2023-12-22T02:03:59;19.73;;;4.50;;
49366;SDS011;35245;52.026;8.540;2023-12-22T02:06:26;20.10;;;4.80;;
49366;SDS011;35245;52.026;8.540;2023-12-22T02:08:56;28.65;;;4.93;;
49366;SDS011;35245;52.026;8.540;2023-12-22T02:11:24;23.30;;;4.30;;
49366;SDS011;35245;52.026;8.540;2023-12-22T02:13:52;20.10;;;4.40;;
49366;SDS011;35245;52.026;8.540;2023-12-22T02:16:20;22.73;;;3.95;;
49366;SDS011;35245;52.026;8.540;2023-12-22T02:18:52;21.10;;;4.03;;
49366;SDS011;35245;52.026;8.540;2023-12-22T02:21:21;23.70;;;4.50;;
49366;SDS011;35245;52.026;8.540;2023-12-22T02:23:49;19.35;;;3.88;;
49366;SDS011;35245;52.026;8.540;2023-12-22T02:26:17;19.80;;;3.83;;
49366;SDS011;35245;52.026;8.540;2023-12-22T02:28:51;26.92;;;3.85;;
49366;SDS011;35245;52.026;8.540;2023-12-22T02:31:26;23.25;;;3.80;;
49366;SDS011;35245;52.026;8.540;2023-12-22T02:33:59;23.48;;;4.70;;
49366;SDS011;35245;52.026;8.540;2023-12-22T02:36:26;17.80;;;3.70;;
49366;SDS011;35245;52.026;8.540;2023-12-22T02:38:55;25.08;;;4.20;;
49366;SDS011;35245;52.026;8.540;2023-12-22T02:41:22;19.00;;;4.28;;
49366;SDS011;35245;52.026;8.540;2023-12-22T02:43:49;24.73;;;4.10;;
49366;SDS011;35245;52.026;8.540;2023-12-22T02:46:16;31.50;;;5.10;;
49366;SDS011;35245;52.026;8.540;2023-12-22T02:48:43;22.25;;;4.32;;
49366;SDS011;35245;52.026;8.540;2023-12-22T02:51:10;20.95;;;4.00;;
49366;SDS011;35245;52.026;8.540;2023-12-22T02:53:37;20.38;;;3.83;;
49366;SDS011;35245;52.026;8.540;2023-12-22T02:56:06;30.98;;;4.53;;
49366;SDS011;35245;52.026;8.540;2023-12-22T02:58:33;27.27;;;3.55;;
49366;SDS011;35245;52.026;8.540;2023-12-22T03:00:59;19.45;;;4.45;;
49366;SDS011;35245;52.026;8.540;2023-12-22T03:03:27;20.23;;;3.83;;
49366;SDS011;35245;52.026;8.540;2023-12-22T03:05:53;22.88;;;4.03;;
49366;SDS011;35245;52.026;8.540;2023-12-22T03:08:20;30.63;;;5.20;;
49366;SDS011;35245;52.026;8.540;2023-12-22T03:10:47;21.08;;;3.50;;
49366;SDS011;35245;52.026;8.540;2023-12-22T03:13:15;23.65;;;4.45;;
49366;SDS011;35245;52.026;8.540;2023-12-22T03:15:42;19.80;;;3.78;;
49366;SDS011;35245;52.026;8.540;2023-12-22T03:18:09;23.42;;;3.85;;
49366;SDS011;35245;52.026;8.540;2023-12-22T03:20:36;19.60;;;3.78;;
49366;SDS011;35245;52.026;8.540;2023-12-22T03:23:03;15.82;;;3.15;;
49366;SDS011;35245;52.026;8.540;2023-12-22T03:25:30;24.08;;;4.40;;
49366;SDS011;35245;52.026;8.540;2023-12-22T03:27:57;20.25;;;3.25;;
49366;SDS011;35245;52.026;8.540;2023-12-22T03:30:25;21.85;;;4.30;;
49366;SDS011;35245;52.026;8.540;2023-12-22T03:32:52;24.63;;;4.75;;
49366;SDS011;35245;52.026;8.540;2023-12-22T03:35:19;23.55;;;4.82;;
49366;SDS011;35245;52.026;8.540;2023-12-22T03:37:45;33.85;;;4.75;;
49366;SDS011;35245;52.026;8.540;2023-12-22T03:40:12;20.25;;;4.45;;
49366;SDS011;35245;52.026;8.540;2023-12-22T03:42:39;19.55;;;3.58;;
49366;SDS011;35245;52.026;8.540;2023-12-22T03:45:06;18.00;;;4.10;;
49366;SDS011;35245;52.026;8.540;2023-12-22T03:47:35;21.35;;;4.32;;
49366;SDS011;35245;52.026;8.540;2023-12-22T03:50:02;20.48;;;4.10;;
49366;SDS011;35245;52.026;8.540;2023-12-22T03:52:29;21.13;;;3.97;;
49366;SDS011;35245;52.026;8.540;2023-12-22T03:54:56;20.20;;;3.75;;
49366;SDS011;35245;52.026;8.540;2023-12-22T03:57:23;20.55;;;4.65;;
49366;SDS011;35245;52.026;8.540;2023-12-22T03:59:50;22.73;;;4.25;;
49366;SDS011;35245;52.026;8.540;2023-12-22T04:02:16;30.95;;;4.18;;
49366;SDS011;35245;52.026;8.540;2023-12-22T04:04:45;24.30;;;3.60;;
49366;SDS011;35245;52.026;8.540;2023-12-22T04:07:11;20.02;;;3.67;;
49366;SDS011;35245;52.026;8.540;2023-12-22T04:09:38;21.08;;;4.35;;
49366;SDS011;35245;52.026;8.540;2023-12-22T04:12:05;20.98;;;4.03;;
49366;SDS011;35245;52.026;8.540;2023-12-22T04:14:32;23.92;;;4.18;;
49366;SDS011;35245;52.026;8.540;2023-12-22T04:16:59;22.63;;;3.97;;
49366;SDS011;35245;52.026;8.540;2023-12-22T04:19:26;23.33;;;4.22;;
49366;SDS011;35245;52.026;8.540;2023-12-22T04:21:54;23.67;;;4.55;;
49366;SDS011;35245;52.026;8.540;2023-12-22T04:24:21;22.45;;;4.05;;
49366;SDS011;35245;52.026;8.540;2023-12-22T04:26:48;19.60;;;3.33;;
49366;SDS011;35245;52.026;8.540;2023-12-22T04:29:15;19.15;;;2.97;;
49366;SDS011;35245;52.026;8.540;2023-12-22T04:31:41;15.52;;;3.17;;
49366;SDS011;35245;52.026;8.540;2023-12-22T04:34:08;16.13;;;3.03;;
49366;SDS011;35245;52.026;8.540;2023-12-22T04:36:35;17.63;;;3.15;;
49366;SDS011;35245;52.026;8.540;2023-12-22T04:39:03;13.38;;;3.20;;
49366;SDS011;35245;52.026;8.540;2023-12-22T04:41:30;22.73;;;3.85;;
49366;SDS011;35245;52.026;8.540;2023-12-22T04:43:57;12.25;;;3.03;;
49366;SDS011;35245;52.026;8.540;2023-12-22T04:46:28;17.92;;;3.03;;
49366;SDS011;35245;52.026;8.540;2023-12-22T04:48:55;22.45;;;4.72;;
49366;SDS011;35245;52.026;8.540;2023-12-22T04:51:21;13.38;;;3.03;;
49366;SDS011;35245;52.026;8.540;2023-12-22T04:53:49;14.85;;;2.97;;
49366;SDS011;35245;52.026;8.540;2023-12-22T04:56:17;14.90;;;3.00;;
49366;SDS011;35245;52.026;8.540;2023-12-22T04:58:44;14.70;;;2.85;;
49366;SDS011;35245;52.026;8.540;2023-12-22T05:01:11;7.25;;;2.08;;
49366;SDS011;35245;52.026;8.540;2023-12-22T05:03:37;10.30;;;2.38;;
49366;SDS011;35245;52.026;8.540;2023-12-22T05:06:04;12.25;;;2.20;;
49366;SDS011;35245;52.026;8.540;2023-12-22T05:08:31;10.40;;;2.15;;
49366;SDS011;35245;52.026;8.540;2023-12-22T05:10:59;9.73;;;1.50;;
49366;SDS011;35245;52.026;8.540;2023-12-22T05:13:27;9.90;;;1.63;;
49366;SDS011;35245;52.026;8.540;2023-12-22T05:15:55;13.60;;;1.70;;
49366;SDS011;35245;52.026;8.540;2023-12-22T05:18:22;8.63;;;1.83;;
49366;SDS011;35245;52.026;8.540;2023-12-22T05:20:49;9.90;;;1.50;;
49366;SDS011;35245;52.026;8.540;2023-12-22T05:23:17;5.65;;;1.15;;
49366;SDS011;35245;52.026;8.540;2023-12-22T05:25:44;8.55;;;1.27;;
49366;SDS011;35245;52.026;8.540;2023-12-22T05:28:11;5.22;;;1.20;;
49366;SDS011;35245;52.026;8.540;2023-12-22T05:30:39;5.90;;;1.05;;
49366;SDS011;35245;52.026;8.540;2023-12-22T05:33:06;10.57;;;2.00;;
49366;SDS011;35245;52.026;8.540;2023-12-22T05:35:33;11.82;;;1.63;;
49366;SDS011;35245;52.026;8.540;2023-12-22T05:38:00;17.40;;;2.85;;
49366;SDS011;35245;52.026;8.540;2023-12-22T05:40:26;7.57;;;1.90;;
49366;SDS011;35245;52.026;8.540;2023-12-22T05:42:53;17.52;;;2.35;;
49366;SDS011;35245;52.026;8.540;2023-12-22T05:45:20;13.45;;;2.47;;
49366;SDS011;35245;52.026;8.540;2023-12-22T05:47:48;12.63;;;2.03;;
49366;SDS011;35245;52.026;8.540;2023-12-22T05:50:15;11.80;;;2.03;;
49366;SDS011;35245;52.026;8.540;2023-12-22T05:52:42;12.32;;;2.10;;
49366;SDS011;35245;52.026;8.540;2023-12-22T05:55:09;15.45;;;2.47;;
49366;SDS011;35245;52.026;8.540;2023-12-22T05:57:36;11.00;;;1.85;;
49366;SDS011;35245;52.026;8.540;2023-12-22T06:00:04;14.48;;;2.65;;
49366;SDS011;35245;52.026;8.540;2023-12-22T06:02:32;11.18;;;1.83;;
49366;SDS011;35245;52.026;8.540;2023-12-22T06:05:00;13.27;;;3.08;;
49366;SDS011;35245;52.026;8.540;2023-12-22T06:07:28;12.98;;;2.15;;
49366;SDS011;35245;52.026;8.540;2023-12-22T06:09:55;14.77;;;2.50;;
49366;SDS011;35245;52.026;8.540;2023-12-22T06:12:22;12.75;;;1.75;;
49366;SDS011;35245;52.026;8.540;2023-12-22T06:14:48;15.52;;;2.53;;
49366;SDS011;35245;52.026;8.540;2023-12-22T06:17:15;15.10;;;2.45;;
49366;SDS011;35245;52.026;8.540;2023-12-22T06:19:42;11.18;;;1.77;;
49366;SDS011;35245;52.026;8.540;2023-12-22T06:22:10;15.68;;;2.78;;
49366;SDS011;35245;52.026;8.540;2023-12-22T06:24:37;13.73;;;2.97;;
49366;SDS011;35245;52.026;8.540;2023-12-22T06:27:04;11.85;;;2.47;;
49366;SDS011;35245;52.026;8.540;2023-12-22T06:29:32;11.90;;;2.95;;
49366;SDS011;35245;52.026;8.540;2023-12-22T06:31:59;15.00;;;3.13;;
49366;SDS011;35245;52.026;8.540;2023-12-22T06:34:26;19.13;;;3.10;;
49366;SDS011;35245;52.026;8.540;2023-12-22T06:36:53;18.90;;;3.30;;
49366;SDS011;35245;52.026;8.540;2023-12-22T06:39:21;16.90;;;3.60;;
49366;SDS011;35245;52.026;8.540;2023-12-22T06:41:48;15.18;;;3.25;;
49366;SDS011;35245;52.026;8.540;2023-12-22T06:44:15;15.27;;;2.50;;
49366;SDS011;35245;52.026;8.540;2023-12-22T06:46:42;13.57;;;2.85;;
49366;SDS011;35245;52.026;8.540;2023-12-22T06:49:09;14.77;;;2.92;;
49366;SDS011;35245;52.026;8.540;2023-12-22T06:51:36;18.17;;;3.03;;
49366;SDS011;35245;52.026;8.540;2023-12-22T06:54:03;22.38;;;3.55;;
49366;SDS011;35245;52.026;8.540;2023-12-22T06:56:33;25.48;;;4.05;;
49366;SDS011;35245;52.026;8.540;2023-12-22T06:59:01;18.08;;;3.50;;
49366;SDS011;35245;52.026;8.540;2023-12-22T07:01:29;20.98;;;3.42;;
49366;SDS011;35245;52.026;8.540;2023-12-22T07:03:57;16.30;;;3.67;;
49366;SDS011;35245;52.026;8.540;2023-12-22T07:06:26;17.23;;;3.20;;
49366;SDS011;35245;52.026;8.540;2023-12-22T07:08:56;19.98;;;3.17;;
49366;SDS011;35245;52.026;8.540;2023-12-22T07:11:23;16.05;;;3.17;;
49366;SDS011;35245;52.026;8.540;2023-12-22T07:13:52;14.13;;;3.22;;
49366;SDS011;35245;52.026;8.540;2023-12-22T07:16:19;16.15;;;3.30;;
49366;SDS011;35245;52.026;8.540;2023-12-22T07:18:45;17.17;;;3.63;;
49366;SDS011;35245;52.026;8.540;2023-12-22T07:21:15;23.13;;;3.60;;
49366;SDS011;35245;52.026;8.540;2023-12-22T07:23:43;22.30;;;4.38;;
49366;SDS011;35245;52.026;8.540;2023-12-22T07:26:10;19.85;;;3.83;;
49366;SDS011;35245;52.026;8.540;2023-12-22T07:28:37;16.83;;;4.28;;
49366;SDS011;35245;52.026;8.540;2023-12-22T07:31:06;21.65;;;3.90;;
49366;SDS011;35245;52.026;8.540;2023-12-22T07:33:32;25.02;;;3.80;;
49366;SDS011;35245;52.026;8.540;2023-12-22T07:35:59;15.77;;;2.88;;
49366;SDS011;35245;52.026;8.540;2023-12-22T07:38:27;20.27;;;3.58;;
49366;SDS011;35245;52.026;8.540;2023-12-22T07:40:54;28.65;;;4.13;;
49366;SDS011;35245;52.026;8.540;2023-12-22T07:43:21;18.70;;;3.45;;
49366;SDS011;35245;52.026;8.540;2023-12-22T07:45:48;21.55;;;3.63;;
49366;SDS011;35245;52.026;8.540;2023-12-22T07:48:17;18.05;;;3.28;;
49366;SDS011;35245;52.026;8.540;2023-12-22T07:50:44;20.27;;;3.65;;
49366;SDS011;35245;52.026;8.540;2023-12-22T07:53:11;16.83;;;3.55;;
49366;SDS011;35245;52.026;8.540;2023-12-22T07:55:38;17.63;;;3.45;;
49366;SDS011;35245;52.026;8.540;2023-12-22T07:58:05;23.48;;;3.45;;
49366;SDS011;35245;52.026;8.540;2023-12-22T08:00:32;24.00;;;4.25;;
49366;SDS011;35245;52.026;8.540;2023-12-22T08:02:59;15.45;;;3.85;;
49366;SDS011;35245;52.026;8.540;2023-12-22T08:05:27;14.48;;;3.20;;
49366;SDS011;35245;52.026;8.540;2023-12-22T08:07:55;20.75;;;3.80;;
49366;SDS011;35245;52.026;8.540;2023-12-22T08:10:22;23.35;;;4.15;;
49366;SDS011;35245;52.026;8.540;2023-12-22T08:12:49;17.30;;;3.65;;
49366;SDS011;35245;52.026;8.540;2023-12-22T08:15:15;14.18;;;3.63;;
49366;SDS011;35245;52.026;8.540;2023-12-22T08:17:45;16.10;;;3.65;;
49366;SDS011;35245;52.026;8.540;2023-12-22T08:20:15;18.58;;;3.70;;
49366;SDS011;35245;52.026;8.540;2023-12-22T08:22:45;18.50;;;3.93;;
49366;SDS011;35245;52.026;8.540;2023-12-22T08:25:12;20.83;;;4.68;;
49366;SDS011;35245;52.026;8.540;2023-12-22T08:27:39;20.83;;;4.22;;
49366;SDS011;35245;52.026;8.540;2023-12-22T08:30:07;24.10;;;4.85;;
49366;SDS011;35245;52.026;8.540;2023-12-22T08:32:34;27.80;;;4.40;;
49366;SDS011;35245;52.026;8.540;2023-12-22T08:35:01;19.23;;;4.03;;
49366;SDS011;35245;52.026;8.540;2023-12-22T08:37:29;23.83;;;3.67;;
49366;SDS011;35245;52.026;8.540;2023-12-22T08:39:57;18.65;;;4.32;;
49366;SDS011;35245;52.026;8.540;2023-12-22T08:42:24;23.73;;;4.15;;
49366;SDS011;35245;52.026;8.540;2023-12-22T08:44:51;22.08;;;3.95;;
49366;SDS011;35245;52.026;8.540;2023-12-22T08:47:18;19.13;;;3.53;;
49366;SDS011;35245;52.026;8.540;2023-12-22T08:49:45;18.70;;;4.32;;
49366;SDS011;35245;52.026;8.540;2023-12-22T08:52:11;22.38;;;3.85;;
49366;SDS011;35245;52.026;8.540;2023-12-22T08:54:38;16.60;;;3.38;;
49366;SDS011;35245;52.026;8.540;2023-12-22T08:57:07;21.02;;;3.60;;
49366;SDS011;35245;52.026;8.540;2023-12-22T08:59:34;17.98;;;3.75;;
49366;SDS011;35245;52.026;8.540;2023-12-22T09:02:01;18.23;;;3.15;;
49366;SDS011;35245;52.026;8.540;2023-12-22T09:04:27;19.80;;;3.88;;
49366;SDS011;35245;52.026;8.540;2023-12-22T09:06:54;16.08;;;3.35;;
49366;SDS011;35245;52.026;8.540;2023-12-22T09:09:21;21.48;;;3.75;;
49366;SDS011;35245;52.026;8.540;2023-12-22T09:11:49;19.27;;;4.57;;
49366;SDS011;35245;52.026;8.540;2023-12-22T09:14:17;18.65;;;3.50;;
49366;SDS011;35245;52.026;8.540;2023-12-22T09:16:44;14.85;;;3.20;;
49366;SDS011;35245;52.026;8.540;2023-12-22T09:19:11;16.83;;;3.20;;
49366;SDS011;35245;52.026;8.540;2023-12-22T09:21:38;17.17;;;3.35;;
49366;SDS011;35245;52.026;8.540;2023-12-22T09:24:05;16.13;;;3.92;;
49366;SDS011;35245;52.026;8.540;2023-12-22T09:26:32;17.98;;;3.13;;
49366;SDS011;35245;52.026;8.540;2023-12-22T09:28:59;17.20;;;4.30;;
49366;SDS011;35245;52.026;8.540;2023-12-22T09:31:27;19.48;;;2.88;;
49366;SDS011;35245;52.026;8.540;2023-12-22T09:33:54;11.77;;;3.40;;
49366;SDS011;35245;52.026;8.540;2023-12-22T09:36:22;11.70;;;2.40;;
49366;SDS011;35245;52.026;8.540;2023-12-22T09:38:49;13.95;;;2.55;;
49366;SDS011;35245;52.026;8.540;2023-12-22T09:41:15;11.35;;;2.40;;
49366;SDS011;35245;52.026;8.540;2023-12-22T09:43:42;12.93;;;2.60;;
49366;SDS011;35245;52.026;8.540;2023-12-22T09:46:13;10.30;;;2.03;;
49366;SDS011;35245;52.026;8.540;2023-12-22T09:48:42;9.15;;;2.58;;
49366;SDS011;35245;52.026;8.540;2023-12-22T09:51:09;10.45;;;2.33;;
49366;SDS011;35245;52.026;8.540;2023-12-22T09:53:37;9.95;;;1.88;;
49366;SDS011;35245;52.026;8.540;2023-12-22T09:56:05;9.73;;;2.35;;
49366;SDS011;35245;52.026;8.540;2023-12-22T09:58:33;12.60;;;2.67;;
49366;SDS011;35245;52.026;8.540;2023-12-22T10:01:00;8.10;;;2.70;;
49366;SDS011;35245;52.026;8.540;2023-12-22T10:03:30;12.70;;;2.03;;
49366;SDS011;35245;52.026;8.540;2023-12-22T10:05:59;11.45;;;2.38;;
49366;SDS011;35245;52.026;8.540;2023-12-22T10:08:26;5.72;;;1.98;;
49366;SDS011;35245;52.026;8.540;2023-12-22T10:10:53;12.98;;;2.53;;
49366;SDS011;35245;52.026;8.540;2023-12-22T10:13:20;9.20;;;2.10;;
49366;SDS011;35245;52.026;8.540;2023-12-22T10:15:47;12.38;;;2.60;;
49366;SDS011;35245;52.026;8.540;2023-12-22T10:18:14;13.02;;;2.72;;
49366;SDS011;35245;52.026;8.540;2023-12-22T10:20:41;12.70;;;1.83;;
49366;SDS011;35245;52.026;8.540;2023-12-22T10:23:10;12.75;;;3.03;;
49366;SDS011;35245;52.026;8.540;2023-12-22T10:25:37;9.55;;;2.03;;
49366;SDS011;35245;52.026;8.540;2023-12-22T10:28:09;8.60;;;2.45;;
49366;SDS011;35245;52.026;8.540;2023-12-22T10:30:36;9.75;;;1.98;;
49366;SDS011;35245;52.026;8.540;2023-12-22T10:33:03;7.60;;;1.60;;
49366;SDS011;35245;52.026;8.540;2023-12-22T10:35:31;9.23;;;1.95;;
49366;SDS011;35245;52.026;8.540;2023-12-22T10:37:58;12.38;;;2.20;;
49366;SDS011;35245;52.026;8.540;2023-12-22T10:40:26;7.93;;;1.80;;
49366;SDS011;35245;52.026;8.540;2023-12-22T10:42:53;9.82;;;1.98;;
49366;SDS011;35245;52.026;8.540;2023-12-22T10:45:20;9.38;;;2.30;;
49366;SDS011;35245;52.026;8.540;2023-12-22T10:47:48;10.68;;;2.40;;
49366;SDS011;35245;52.026;8.540;2023-12-22T10:50:18;9.20;;;1.90;;
49366;SDS011;35245;52.026;8.540;2023-12-22T10:52:48;9.20;;;2.15;;
49366;SDS011;35245;52.026;8.540;2023-12-22T10:55:16;6.25;;;1.85;;
49366;SDS011;35245;52.026;8.540;2023-12-22T10:57:45;10.32;;;2.38;;
49366;SDS011;35245;52.026;8.540;2023-12-22T11:00:13;9.98;;;2.50;;
49366;SDS011;35245;52.026;8.540;2023-12-22T11:02:41;7.47;;;1.90;;
49366;SDS011;35245;52.026;8.540;2023-12-22T11:05:10;8.38;;;1.90;;
49366;SDS011;35245;52.026;8.540;2023-12-22T11:07:41;5.80;;;2.00;;
49366;SDS011;35245;52.026;8.540;2023-12-22T11:10:12;9.65;;;2.13;;
49366;SDS011;35245;52.026;8.540;2023-12-22T11:12:40;10.27;;;2.40;;
49366;SDS011;35245;52.026;8.540;2023-12-22T11:15:10;8.07;;;2.20;;
49366;SDS011;35245;52.026;8.540;2023-12-22T11:17:37;7.00;;;1.67;;
49366;SDS011;35245;52.026;8.540;2023-12-22T11:20:07;5.70;;;1.85;;
49366;SDS011;35245;52.026;8.540;2023-12-22T11:22:35;9.85;;;2.28;;
49366;SDS011;35245;52.026;8.540;2023-12-22T11:25:03;9.50;;;2.33;;
49366;SDS011;35245;52.026;8.540;2023-12-22T11:27:32;8.95;;;2.55;;
49366;SDS011;35245;52.026;8.540;2023-12-22T11:30:00;11.68;;;3.42;;
49366;SDS011;35245;52.026;8.540;2023-12-22T11:32:29;11.82;;;3.42;;
49366;SDS011;35245;52.026;8.540;2023-12-22T11:34:56;11.75;;;2.10;;
49366;SDS011;35245;52.026;8.540;2023-12-22T11:37:23;7.70;;;2.45;;
49366;SDS011;35245;52.026;8.540;2023-12-22T11:39:50;5.18;;;2.17;;
49366;SDS011;35245;52.026;8.540;2023-12-22T11:42:18;14.82;;;6.03;;
49366;SDS011;35245;52.026;8.540;2023-12-22T11:44:46;10.23;;;2.47;;
49366;SDS011;35245;52.026;8.540;2023-12-22T11:47:13;8.10;;;2.25;;
49366;SDS011;35245;52.026;8.540;2023-12-22T11:49:42;8.75;;;2.22;;
49366;SDS011;35245;52.026;8.540;2023-12-22T11:52:10;7.72;;;1.80;;
49366;SDS011;35245;52.026;8.540;2023-12-22T11:54:44;11.35;;;2.47;;
49366;SDS011;35245;52.026;8.540;2023-12-22T11:57:31;9.13;;;2.72;;
49366;SDS011;35245;52.026;8.540;2023-12-22T12:00:00;6.25;;;1.85;;
49366;SDS011;35245;52.026;8.540;2023-12-22T12:02:32;8.27;;;2.33;;
49366;SDS011;35245;52.026;8.540;2023-12-22T12:05:02;12.18;;;3.22;;
49366;SDS011;35245;52.026;8.540;2023-12-22T12:07:41;6.88;;;2.63;;
49366;SDS011;35245;52.026;8.540;2023-12-22T12:10:12;9.23;;;3.13;;
49366;SDS011;35245;52.026;8.540;2023-12-22T12:13:04;5.88;;;1.55;;
49366;SDS011;35245;52.026;8.540;2023-12-22T12:15:31;9.63;;;2.40;;
49366;SDS011;35245;52.026;8.540;2023-12-22T12:18:00;7.28;;;1.77;;
49366;SDS011;35245;52.026;8.540;2023-12-22T12:20:28;4.50;;;1.48;;
49366;SDS011;35245;52.026;8.540;2023-12-22T12:22:55;5.72;;;2.40;;
49366;SDS011;35245;52.026;8.540;2023-12-22T12:25:22;5.20;;;2.08;;
49366;SDS011;35245;52.026;8.540;2023-12-22T12:27:50;6.68;;;1.63;;
49366;SDS011;35245;52.026;8.540;2023-12-22T12:30:17;8.25;;;1.95;;
49366;SDS011;35245;52.026;8.540;2023-12-22T12:32:44;6.28;;;2.42;;
49366;SDS011;35245;52.026;8.540;2023-12-22T12:35:12;6.60;;;2.47;;
49366;SDS011;35245;52.026;8.540;2023-12-22T12:37:41;7.57;;;2.45;;
49366;SDS011;35245;52.026;8.540;2023-12-22T12:40:11;6.53;;;2.22;;
49366;SDS011;35245;52.026;8.540;2023-12-22T12:42:38;17.83;;;5.85;;
49366;SDS011;35245;52.026;8.540;2023-12-22T12:45:05;10.70;;;2.35;;
49366;SDS011;35245;52.026;8.540;2023-12-22T12:47:33;6.18;;;1.90;;
49366;SDS011;35245;52.026;8.540;2023-12-22T12:50:00;4.78;;;1.52;;
49366;SDS011;35245;52.026;8.540;2023-12-22T12:52:28;5.72;;;1.30;;
49366;SDS011;35245;52.026;8.540;2023-12-22T12:54:56;7.22;;;1.42;;
49366;SDS011;35245;52.026;8.540;2023-12-22T12:57:25;5.00;;;1.35;;
49366;SDS011;35245;52.026;8.540;2023-12-22T12:59:52;5.35;;;1.75;;
49366;SDS011;35245;52.026;8.540;2023-12-22T13:02:19;6.22;;;1.25;;
49366;SDS011;35245;52.026;8.540;2023-12-22T13:04:47;3.33;;;1.30;;
49366;SDS011;35245;52.026;8.540;2023-12-22T13:07:22;5.95;;;1.80;;
49366;SDS011;35245;52.026;8.540;2023-12-22T13:09:50;6.03;;;2.42;;
49366;SDS011;35245;52.026;8.540;2023-12-22T13:12:20;5.30;;;2.40;;
49366;SDS011;35245;52.026;8.540;2023-12-22T13:14:47;7.10;;;2.33;;
49366;SDS011;35245;52.026;8.540;2023-12-22T13:17:15;4.22;;;1.20;;
49366;SDS011;35245;52.026;8.540;2023-12-22T13:19:42;4.45;;;2.28;;
49366;SDS011;35245;52.026;8.540;2023-12-22T13:22:09;2.20;;;1.27;;
49366;SDS011;35245;52.026;8.540;2023-12-22T13:24:36;5.15;;;1.20;;
49366;SDS011;35245;52.026;8.540;2023-12-22T13:27:03;5.43;;;1.05;;
49366;SDS011;35245;52.026;8.540;2023-12-22T13:29:42;3.70;;;1.33;;
49366;SDS011;35245;52.026;8.540;2023-12-22T13:32:14;3.28;;;1.25;;
49366;SDS011;35245;52.026;8.540;2023-12-22T13:34:46;3.13;;;1.10;;
49366;SDS011;35245;52.026;8.540;2023-12-22T13:37:14;6.43;;;2.75;;
49366;SDS011;35245;52.026;8.540;2023-12-22T13:39:41;6.82;;;1.98;;
49366;SDS011;35245;52.026;8.540;2023-12-22T13:42:13;2.83;;;1.60;;
49366;SDS011;35245;52.026;8.540;2023-12-22T13:44:43;1.95;;;0.95;;
49366;SDS011;35245;52.026;8.540;2023-12-22T13:47:12;3.50;;;1.63;;
49366;SDS011;35245;52.026;8.540;2023-12-22T13:49:40;4.20;;;1.52;;
49366;SDS011;35245;52.026;8.540;2023-12-22T13:52:07;3.35;;;1.13;;
49366;SDS011;35245;52.026;8.540;2023-12-22T13:54:35;1.70;;;0.90;;
49366;SDS011;35245;52.026;8.540;2023-12-22T13:57:02;3.78;;;1.10;;
49366;SDS011;35245;52.026;8.540;2023-12-22T13:59:31;10.30;;;3.35;;
49366;SDS011;35245;52.026;8.540;2023-12-22T14:02:00;4.03;;;2.10;;
49366;SDS011;35245;52.026;8.540;2023-12-22T14:04:27;5.70;;;1.92;;
49366;SDS011;35245;52.026;8.540;2023-12-22T14:06:54;6.18;;;3.15;;
49366;SDS011;35245;52.026;8.540;2023-12-22T14:09:20;2.42;;;0.93;;
49366;SDS011;35245;52.026;8.540;2023-12-22T14:11:49;1.85;;;0.75;;
49366;SDS011;35245;52.026;8.540;2023-12-22T14:14:17;4.32;;;1.10;;
49366;SDS011;35245;52.026;8.540;2023-12-22T14:16:44;4.03;;;0.90;;
49366;SDS011;35245;52.026;8.540;2023-12-22T14:19:12;5.72;;;1.10;;
49366;SDS011;35245;52.026;8.540;2023-12-22T14:21:39;3.80;;;1.98;;
49366;SDS011;35245;52.026;8.540;2023-12-22T14:24:06;4.65;;;1.67;;
49366;SDS011;35245;52.026;8.540;2023-12-22T14:26:48;5.43;;;1.45;;
49366;SDS011;35245;52.026;8.540;2023-12-22T14:29:19;3.90;;;0.98;;
49366;SDS011;35245;52.026;8.540;2023-12-22T14:31:47;4.45;;;2.05;;
49366;SDS011;35245;52.026;8.540;2023-12-22T14:34:15;3.63;;;1.50;;
49366;SDS011;35245;52.026;8.540;2023-12-22T14:36:43;3.85;;;1.30;;
49366;SDS011;35245;52.026;8.540;2023-12-22T14:39:10;4.78;;;2.00;;
49366;SDS011;35245;52.026;8.540;2023-12-22T14:41:38;3.35;;;1.77;;